createdAt,value
2019-06-20T00:00:48.247Z,24.20
2019-06-20T00:04:53.008Z,24.10
2019-06-20T00:08:57.767Z,24.10
2019-06-20T00:13:02.521Z,24.00
2019-06-20T00:17:07.311Z,24.10
2019-06-20T00:21:12.035Z,24.00
2019-06-20T00:25:17.889Z,23.90
2019-06-20T00:29:22.753Z,23.90
2019-06-20T00:33:27.451Z,23.90
2019-06-20T00:37:33.183Z,23.50
2019-06-20T00:41:38.183Z,23.00
2019-06-20T00:45:42.937Z,23.20
2019-06-20T00:49:47.606Z,22.90
2019-06-20T00:53:52.264Z,22.70
2019-06-20T00:57:56.973Z,22.50
2019-06-20T01:02:01.680Z,22.40
2019-06-20T01:06:06.796Z,22.50
2019-06-20T01:10:12.154Z,22.60
2019-06-20T01:14:16.825Z,22.70
2019-06-20T01:18:21.567Z,23.20
2019-06-20T01:22:26.424Z,23.00
2019-06-20T01:26:31.081Z,23.20
2019-06-20T01:30:35.813Z,23.20
2019-06-20T01:34:40.617Z,23.10
2019-06-20T01:38:45.388Z,23.20
2019-06-20T01:42:50.090Z,22.80
2019-06-20T01:46:54.816Z,22.60
2019-06-20T01:50:59.508Z,22.40
2019-06-20T01:55:05.347Z,22.40
2019-06-20T01:59:10.342Z,22.20
2019-06-20T02:03:15.950Z,22.10
2019-06-20T02:07:20.854Z,22.00
2019-06-20T02:11:25.662Z,21.90
2019-06-20T02:15:30.485Z,21.70
2019-06-20T02:19:35.237Z,21.70
2019-06-20T02:23:39.926Z,21.50
2019-06-20T02:27:44.884Z,21.30
2019-06-20T02:31:49.626Z,21.20
2019-06-20T02:35:54.385Z,21.10
2019-06-20T02:39:59.179Z,21.10
2019-06-20T02:44:04.150Z,21.10
2019-06-20T02:48:09.127Z,20.90
2019-06-20T02:52:14.236Z,20.90
2019-06-20T02:56:18.949Z,20.90
2019-06-20T03:00:35.412Z,21.00
2019-06-20T03:04:40.149Z,20.90
2019-06-20T03:08:44.849Z,20.80
2019-06-20T03:12:49.521Z,20.50
2019-06-20T03:16:54.305Z,20.50
2019-06-20T03:20:59.102Z,20.60
2019-06-20T03:25:04.149Z,20.70
2019-06-20T03:29:08.994Z,20.70
2019-06-20T03:33:13.789Z,20.60
2019-06-20T03:37:18.547Z,20.50
2019-06-20T03:41:23.317Z,20.50
2019-06-20T03:45:29.135Z,20.60
2019-06-20T03:49:33.856Z,20.50
2019-06-20T03:53:38.523Z,20.50
2019-06-20T03:57:43.226Z,20.40
2019-06-20T04:01:49.237Z,20.50
2019-06-20T04:05:55.401Z,20.50
2019-06-20T04:10:01.080Z,20.60
2019-06-20T04:14:06.938Z,20.60
2019-06-20T04:18:11.649Z,20.60
2019-06-20T04:22:16.739Z,20.50
2019-06-20T04:26:21.438Z,20.60
2019-06-20T04:30:26.277Z,20.80
2019-06-20T04:34:31.032Z,20.90
2019-06-20T04:38:35.751Z,20.80
2019-06-20T04:42:40.409Z,20.80
2019-06-20T04:46:56.614Z,20.90
2019-06-20T04:51:01.427Z,21.30
2019-06-20T04:55:06.489Z,21.20
2019-06-20T04:59:12.312Z,21.30
2019-06-20T05:03:18.336Z,21.60
2019-06-20T05:07:23.008Z,22.00
2019-06-20T05:11:27.719Z,21.90
2019-06-20T05:15:32.579Z,22.00
2019-06-20T05:19:37.301Z,22.10
2019-06-20T05:23:42.058Z,22.30
2019-06-20T05:27:46.762Z,22.20
2019-06-20T05:31:51.448Z,22.30
2019-06-20T05:35:56.130Z,22.60
2019-06-20T05:40:07.770Z,23.10
2019-06-20T05:44:13.764Z,23.40
2019-06-20T05:48:18.884Z,23.30
2019-06-20T05:52:23.648Z,23.70
2019-06-20T05:56:28.359Z,24.30
2019-06-20T06:00:33.429Z,24.20
2019-06-20T06:04:38.175Z,23.90
2019-06-20T06:08:42.870Z,23.70
2019-06-20T06:12:47.572Z,23.80
2019-06-20T06:16:52.346Z,23.40
2019-06-20T06:20:57.105Z,23.20
2019-06-20T06:25:01.802Z,23.10
2019-06-20T06:29:06.604Z,23.10
2019-06-20T06:33:11.295Z,23.30
2019-06-20T06:37:16.038Z,22.90
2019-06-20T06:41:20.913Z,22.60
2019-06-20T06:45:25.998Z,21.70
2019-06-20T06:49:30.781Z,21.20
2019-06-20T06:53:35.469Z,20.90
2019-06-20T06:57:40.268Z,20.80
2019-06-20T07:01:45.111Z,20.80
2019-06-20T07:05:49.793Z,21.00
2019-06-20T07:09:54.937Z,21.20
2019-06-20T07:13:59.697Z,21.30
2019-06-20T07:18:04.717Z,22.10
2019-06-20T07:22:09.450Z,22.20
2019-06-20T07:26:14.143Z,22.40
2019-06-20T07:30:20.709Z,21.80
2019-06-20T07:34:26.598Z,21.70
2019-06-20T07:38:31.369Z,21.60
2019-06-20T07:42:37.455Z,21.60
2019-06-20T07:46:42.775Z,21.60
2019-06-20T07:50:47.749Z,21.70
2019-06-20T07:54:52.630Z,21.40
2019-06-20T07:58:57.475Z,21.30
2019-06-20T08:03:02.322Z,21.20
2019-06-20T08:07:07.014Z,21.00
2019-06-20T08:11:11.831Z,21.00
2019-06-20T08:15:17.186Z,21.10
2019-06-20T08:19:23.976Z,21.40
2019-06-20T08:23:28.825Z,21.60
2019-06-20T08:27:54.105Z,21.40
2019-06-20T08:31:59.745Z,21.40
2019-06-20T08:36:06.711Z,22.20
2019-06-20T08:40:11.726Z,22.90
2019-06-20T08:44:16.509Z,23.00
2019-06-20T08:48:21.414Z,24.60
2019-06-20T08:52:26.531Z,26.70
2019-06-20T08:56:32.835Z,27.00
2019-06-20T09:00:38.581Z,27.00
2019-06-20T09:04:43.477Z,26.30
2019-06-20T09:08:48.276Z,26.20
2019-06-20T09:12:54.071Z,27.50
2019-06-20T09:17:00.675Z,27.10
2019-06-20T09:21:05.613Z,25.50
2019-06-20T09:25:11.028Z,24.10
2019-06-20T09:29:15.858Z,23.30
2019-06-20T09:33:20.707Z,22.90
2019-06-20T09:37:25.359Z,22.90
2019-06-20T09:41:30.339Z,23.10
2019-06-20T09:45:35.403Z,23.30
2019-06-20T09:49:40.265Z,23.80
2019-06-20T09:53:45.197Z,23.90
2019-06-20T09:57:50.810Z,23.90
2019-06-20T10:01:58.547Z,23.40
2019-06-20T10:06:12.740Z,24.40
2019-06-20T10:10:12.900Z,25.30
2019-06-20T10:14:18.235Z,25.30
2019-06-20T10:18:23.211Z,25.60
2019-06-20T10:22:27.985Z,25.10
2019-06-20T10:26:32.783Z,26.20
2019-06-20T10:30:37.487Z,27.00
2019-06-20T10:34:42.374Z,28.50
2019-06-20T10:38:48.021Z,28.70
2019-06-20T10:42:53.235Z,29.60
2019-06-20T10:46:58.005Z,31.00
2019-06-20T10:51:20.821Z,31.30
2019-06-20T10:55:25.756Z,30.70
2019-06-20T10:59:30.732Z,30.80
2019-06-20T11:03:35.443Z,28.20
2019-06-20T11:07:40.753Z,28.10
2019-06-20T11:11:47.088Z,28.40
2019-06-20T11:15:51.917Z,28.50
2019-06-20T11:19:57.201Z,28.50
2019-06-20T11:24:01.877Z,29.50
2019-06-20T11:28:06.598Z,29.40
2019-06-20T11:32:13.619Z,29.90
2019-06-20T11:36:18.318Z,29.20
2019-06-20T11:40:23.327Z,29.50
2019-06-20T11:44:31.908Z,30.20
2019-06-20T11:48:36.945Z,30.40
2019-06-20T11:52:45.291Z,30.00
2019-06-20T11:56:48.291Z,29.60
2019-06-20T12:01:03.230Z,29.60
2019-06-20T12:04:59.681Z,29.30
2019-06-20T12:09:05.971Z,29.10
2019-06-20T12:13:11.104Z,29.90
2019-06-20T12:17:15.821Z,29.80
2019-06-20T12:21:20.462Z,28.80
2019-06-20T12:25:27.129Z,28.30
2019-06-20T12:29:32.891Z,29.20
2019-06-20T12:33:38.229Z,29.80
2019-06-20T12:37:45.218Z,29.10
2019-06-20T12:41:50.316Z,30.40
2019-06-20T12:45:55.037Z,29.10
2019-06-20T12:49:59.739Z,29.80
2019-06-20T12:54:05.393Z,29.70
2019-06-20T12:58:10.116Z,29.40
2019-06-20T13:02:14.972Z,29.10
2019-06-20T13:06:19.879Z,29.50
2019-06-20T13:10:25.657Z,30.10
2019-06-20T13:14:30.415Z,31.30
2019-06-20T13:18:35.483Z,29.60
2019-06-20T13:22:41.378Z,28.60
2019-06-20T13:26:46.478Z,28.20
2019-06-20T13:30:52.227Z,28.30
2019-06-20T13:34:57.139Z,27.40
2019-06-20T13:39:01.859Z,27.00
2019-06-20T13:43:08.122Z,26.80
2019-06-20T13:47:12.952Z,26.60
2019-06-20T13:51:17.682Z,26.90
2019-06-20T13:55:22.484Z,26.70
2019-06-20T13:59:27.249Z,26.40
2019-06-20T14:03:31.907Z,25.90
2019-06-20T14:07:36.578Z,25.50
2019-06-20T14:11:43.214Z,25.30
2019-06-20T14:15:48.533Z,25.30
2019-06-20T14:19:56.521Z,25.00
2019-06-20T14:24:01.389Z,24.80
2019-06-20T14:28:06.126Z,24.90
2019-06-20T14:32:21.745Z,24.50
2019-06-20T14:36:17.365Z,24.40
2019-06-20T14:40:22.249Z,24.80
2019-06-20T14:44:26.988Z,24.70
2019-06-20T14:48:31.648Z,24.60
2019-06-20T14:52:36.297Z,24.10
2019-06-20T14:56:44.524Z,23.80
2019-06-20T15:00:49.770Z,23.60
2019-06-20T15:04:54.525Z,23.70
2019-06-20T15:09:04.751Z,23.90
2019-06-20T15:13:07.220Z,24.40
2019-06-20T15:17:12.137Z,25.20
2019-06-20T15:21:16.936Z,25.80
2019-06-20T15:25:22.217Z,26.20
2019-06-20T15:29:26.958Z,26.60
2019-06-20T15:33:31.685Z,26.50
2019-06-20T15:37:36.421Z,26.30
2019-06-20T15:41:41.566Z,26.40
2019-06-20T15:45:48.346Z,26.30
2019-06-20T15:49:52.620Z,26.00
2019-06-20T15:53:57.288Z,26.00
2019-06-20T15:58:02.125Z,26.00
2019-06-20T16:02:07.796Z,26.40
2019-06-20T16:06:12.470Z,26.20
2019-06-20T16:10:17.851Z,26.50
2019-06-20T16:14:22.538Z,26.10
2019-06-20T16:18:27.306Z,25.80
2019-06-20T16:22:31.993Z,26.10
2019-06-20T16:26:36.838Z,26.30
2019-06-20T16:30:41.482Z,25.90
2019-06-20T16:34:46.274Z,25.60
2019-06-20T16:38:50.934Z,25.70
2019-06-20T16:42:55.745Z,26.30
2019-06-20T16:47:00.452Z,26.70
2019-06-20T16:51:05.318Z,26.30
2019-06-20T16:55:10.110Z,26.50
2019-06-20T16:59:14.839Z,26.20
2019-06-20T17:03:19.615Z,25.90
2019-06-20T17:07:24.339Z,25.90
2019-06-20T17:11:29.043Z,25.90
2019-06-20T17:15:33.815Z,25.70
2019-06-20T17:19:42.082Z,25.40
2019-06-20T17:23:45.149Z,25.10
2019-06-20T17:27:49.892Z,25.00
2019-06-20T17:31:57.373Z,25.00
2019-06-20T17:36:16.985Z,25.00
2019-06-20T17:40:09.334Z,24.90
2019-06-20T17:44:14.427Z,25.00
2019-06-20T17:48:19.121Z,24.90
2019-06-20T17:52:23.942Z,24.80
2019-06-20T17:56:28.795Z,24.80
2019-06-20T18:00:35.051Z,24.80
2019-06-20T18:04:40.255Z,24.90
2019-06-20T18:08:45.177Z,25.00
2019-06-20T18:12:50.021Z,25.20
2019-06-20T18:16:55.583Z,25.10
2019-06-20T18:21:00.328Z,25.00
2019-06-20T18:25:06.904Z,24.70
2019-06-20T18:29:12.082Z,24.60
2019-06-20T18:33:18.455Z,24.60
2019-06-20T18:37:31.487Z,24.50
2019-06-20T18:41:30.138Z,24.60
2019-06-20T18:45:34.961Z,24.40
2019-06-20T18:49:39.800Z,24.40
2019-06-20T18:53:44.509Z,24.30
2019-06-20T18:57:49.404Z,24.30
2019-06-20T19:01:54.247Z,24.20
2019-06-20T19:05:59.423Z,24.20
2019-06-20T19:10:05.214Z,24.10
2019-06-20T19:14:12.575Z,24.10
2019-06-20T19:18:16.724Z,24.00
2019-06-20T19:22:21.624Z,23.90
2019-06-20T19:26:26.475Z,23.80
2019-06-20T19:30:39.175Z,23.80
2019-06-20T19:34:43.905Z,23.80
2019-06-20T19:38:48.668Z,23.90
2019-06-20T19:42:53.373Z,23.90
2019-06-20T19:46:58.501Z,23.90
2019-06-20T19:51:03.335Z,24.10
2019-06-20T19:55:08.618Z,23.60
2019-06-20T19:59:14.574Z,23.40
2019-06-20T20:03:20.091Z,23.30
2019-06-20T20:07:24.883Z,23.30
2019-06-20T20:11:29.879Z,23.40
2019-06-20T20:15:35.535Z,23.30
2019-06-20T20:19:40.549Z,23.20
2019-06-20T20:23:45.778Z,23.20
2019-06-20T20:33:02.226Z,23.10
2019-06-20T20:37:07.497Z,23.10
2019-06-20T20:41:13.275Z,23.00
2019-06-20T20:45:19.896Z,23.00
2019-06-20T20:49:27.019Z,23.00
2019-06-20T20:53:32.595Z,23.10
2019-06-20T20:57:38.937Z,23.00
2019-06-20T21:01:44.284Z,23.00
2019-06-20T21:05:51.723Z,23.10
2019-06-20T21:09:56.925Z,23.10
2019-06-20T21:14:01.932Z,23.00
2019-06-20T21:18:06.850Z,23.00
2019-06-20T21:22:11.649Z,22.80
2019-06-20T21:26:21.137Z,22.80
2019-06-20T21:30:26.646Z,22.80
2019-06-20T21:34:31.897Z,22.80
2019-06-20T21:38:36.729Z,22.70
2019-06-20T21:42:41.771Z,22.70
2019-06-20T21:46:47.747Z,22.60
2019-06-20T21:50:52.925Z,22.50
2019-06-20T21:54:57.919Z,22.50
2019-06-20T21:59:02.910Z,22.40
2019-06-20T22:03:09.283Z,22.30
2019-06-20T22:07:15.303Z,22.10
2019-06-20T22:11:20.224Z,21.80
2019-06-20T22:15:25.202Z,21.40
2019-06-20T22:19:31.755Z,20.90
2019-06-20T22:23:36.571Z,20.40
2019-06-20T22:27:41.605Z,20.00
2019-06-20T22:31:46.419Z,19.80
2019-06-20T22:35:51.179Z,19.40
2019-06-20T22:39:56.424Z,19.20
2019-06-20T22:44:01.275Z,19.10
2019-06-20T22:48:06.514Z,19.10
2019-06-20T22:52:11.390Z,19.00
2019-06-20T22:56:16.196Z,19.10
2019-06-20T23:00:21.258Z,19.00
2019-06-20T23:04:26.629Z,18.90
2019-06-20T23:08:34.454Z,18.80
2019-06-20T23:12:39.420Z,18.80
2019-06-20T23:16:44.358Z,18.80
2019-06-20T23:21:03.979Z,18.80
2019-06-20T23:24:56.183Z,18.90
2019-06-20T23:29:19.795Z,19.20
2019-06-20T23:33:26.974Z,19.20
2019-06-20T23:37:32.871Z,19.30
2019-06-20T23:41:37.522Z,19.40
2019-06-20T23:45:42.171Z,19.40
2019-06-20T23:49:46.848Z,19.40
2019-06-20T23:53:51.612Z,19.20
2019-06-20T23:57:56.386Z,19.50
